Toto, Indiana
Current Conditions -  °F | °C
As of 3:15 AM on Monday 24 Nov 2014 (Local Time) from KOXI Reporting Station
Overcast Overcast  
Wind Chill: 50°   Ceiling: 600
Heat Index: 50°   Visibility: 10mi
Dew Point: 49°   Wind: 12mph
Humidity: 95%   Direction: 220°SW
Pressure: 29.12"   Gusts: NA
Location:  41.2954°N, 86.6039°W
Report Text: KOXI 240915Z AUTO 22010KT 10SM OVC006 10/09 A2912 RMK AO1 T01000092
Loading
Personal Weather Stations






























Interactive Weather Map New forecast layout! Learn more

10-Day Weather Forecast

Advertisements
Track Severe Weather on mobile